createdAt,value
2018-05-10T00:00:15.866Z,73.9
2018-05-10T00:01:06.491Z,73.8
2018-05-10T00:01:56.834Z,73.8
2018-05-10T00:02:46.355Z,73.8
2018-05-10T00:03:36.949Z,73.8
2018-05-10T00:04:26.854Z,73.8
2018-05-10T00:05:17.083Z,73.8
2018-05-10T00:06:06.864Z,73.8
2018-05-10T00:06:57.232Z,73.8
2018-05-10T00:07:47.488Z,73.8
2018-05-10T00:08:36.772Z,73.8
2018-05-10T00:09:42.041Z,73.8
2018-05-10T00:10:17.604Z,73.7
2018-05-10T00:11:07.256Z,73.7
2018-05-10T00:11:57.329Z,73.7
2018-05-10T00:12:47.120Z,73.7
2018-05-10T00:13:37.180Z,73.7
2018-05-10T00:14:26.968Z,73.7
2018-05-10T00:15:17.878Z,73.7
2018-05-10T00:16:07.091Z,73.7
2018-05-10T00:16:57.994Z,73.6
2018-05-10T00:17:47.772Z,73.6
2018-05-10T00:18:37.852Z,73.6
2018-05-10T00:19:27.649Z,73.6
2018-05-10T00:20:17.978Z,73.6
2018-05-10T00:21:08.039Z,73.6
2018-05-10T00:21:58.381Z,73.6
2018-05-10T00:22:48.166Z,73.6
2018-05-10T00:23:38.486Z,73.6
2018-05-10T00:24:29.063Z,73.6
2018-05-10T00:25:18.344Z,73.6
2018-05-10T00:26:08.452Z,73.5
2018-05-10T00:26:58.480Z,73.5
2018-05-10T00:27:48.540Z,73.5
2018-05-10T00:28:38.594Z,73.5
2018-05-10T00:29:28.692Z,73.5
2018-05-10T00:30:18.639Z,73.5
2018-05-10T00:31:08.989Z,73.5
2018-05-10T00:31:59.123Z,73.5
2018-05-10T00:32:48.922Z,73.5
2018-05-10T00:33:38.872Z,73.4
2018-05-10T00:34:29.312Z,73.4
2018-05-10T00:35:19.131Z,73.4
2018-05-10T00:36:09.862Z,73.4
2018-05-10T00:36:58.979Z,73.4
2018-05-10T00:37:49.304Z,73.4
2018-05-10T00:38:39.406Z,73.4
2018-05-10T00:39:29.480Z,73.4
2018-05-10T00:40:19.748Z,73.4
2018-05-10T00:41:09.596Z,73.4
2018-05-10T00:41:59.650Z,73.4
2018-05-10T00:43:53.439Z,73.4
2018-05-10T00:44:03.175Z,73.3
2018-05-10T00:44:54.721Z,73.3
2018-05-10T00:45:43.868Z,73.3
2018-05-10T00:46:34.633Z,73.3
2018-05-10T00:47:24.008Z,73.3
2018-05-10T00:48:14.655Z,73.3
2018-05-10T00:49:04.704Z,73.3
2018-05-10T00:49:54.190Z,73.3
2018-05-10T00:50:44.533Z,73.3
2018-05-10T00:51:34.333Z,73.3
2018-05-10T00:52:39.984Z,73.3
2018-05-10T00:53:14.669Z,73.2
2018-05-10T00:54:04.809Z,73.2
2018-05-10T00:54:54.854Z,73.2
2018-05-10T00:55:44.943Z,73.2
2018-05-10T00:56:35.279Z,73.2
2018-05-10T00:57:24.497Z,73.2
2018-05-10T00:58:15.126Z,73.2
2018-05-10T00:59:05.542Z,73.2
2018-05-10T00:59:55.000Z,73.1
2018-05-10T01:00:45.048Z,73.1
2018-05-10T01:01:35.910Z,73.1
2018-05-10T01:02:24.878Z,73.1
2018-05-10T01:03:15.046Z,73.1
2018-05-10T01:04:05.208Z,73.1
2018-05-10T01:04:55.563Z,73.1
2018-05-10T01:05:44.674Z,73.1
2018-05-10T01:06:35.215Z,73.1
2018-05-10T01:07:25.299Z,73.1
2018-05-10T01:08:15.616Z,73.1
2018-05-10T01:09:05.658Z,73.1
2018-05-10T01:09:56.324Z,73
2018-05-10T01:10:45.534Z,73
2018-05-10T01:11:35.172Z,73
2018-05-10T01:12:25.402Z,73
2018-05-10T01:13:16.101Z,73
2018-05-10T01:14:05.791Z,73
2018-05-10T01:14:56.487Z,72.9
2018-05-10T01:15:45.603Z,72.9
2018-05-10T01:16:36.307Z,72.9
2018-05-10T01:17:26.341Z,72.9
2018-05-10T01:18:15.814Z,72.9
2018-05-10T01:19:06.146Z,72.9
2018-05-10T01:19:56.383Z,72.9
2018-05-10T01:20:46.827Z,72.9
2018-05-10T01:21:36.986Z,72.9
2018-05-10T01:22:26.970Z,72.9
2018-05-10T01:23:16.210Z,72.9
2018-05-10T01:24:06.231Z,72.9
2018-05-10T01:24:56.907Z,72.9
2018-05-10T01:25:47.726Z,72.9
2018-05-10T01:26:37.034Z,72.8
2018-05-10T01:27:27.105Z,72.8
2018-05-10T01:28:16.833Z,72.8
2018-05-10T01:29:07.760Z,72.8
2018-05-10T01:29:57.245Z,72.8
2018-05-10T01:30:47.436Z,72.8
2018-05-10T01:31:37.655Z,72.8
2018-05-10T01:32:42.133Z,72.8
2018-05-10T20:10:31.273Z,58.5
2018-05-10T20:11:22.479Z,58.5
2018-05-10T20:12:12.540Z,58.5
2018-05-10T20:13:02.321Z,58.5
2018-05-10T20:13:53.526Z,58.5
2018-05-10T20:14:42.447Z,58.5
2018-05-10T20:15:32.791Z,58.5
2018-05-10T20:16:22.845Z,58.5
2018-05-10T20:17:12.649Z,58.4
2018-05-10T20:18:03.031Z,58.4
2018-05-10T20:18:51.938Z,58.4
2018-05-10T20:19:41.979Z,58.4
2018-05-10T20:20:31.826Z,58.4
2018-05-10T20:21:22.981Z,58.4
2018-05-10T20:22:12.998Z,58.4
2018-05-10T20:23:02.828Z,58.4
2018-05-10T20:23:53.539Z,58.4
2018-05-10T20:24:42.506Z,58.4
2018-05-10T20:25:33.006Z,58.4
2018-05-10T20:26:22.766Z,58.4
2018-05-10T20:27:12.143Z,58.4
2018-05-10T20:28:03.001Z,58.4
2018-05-10T20:28:52.405Z,58.3
2018-05-10T20:29:42.883Z,58.3
2018-05-10T20:30:32.627Z,58.3
2018-05-10T20:31:22.855Z,58.3
2018-05-10T20:32:14.393Z,58.3
2018-05-10T20:33:03.548Z,58.3
2018-05-10T20:33:53.670Z,58.3
2018-05-10T20:34:43.220Z,58.3
2018-05-10T20:35:33.725Z,58.3
2018-05-10T20:36:24.088Z,58.3
2018-05-10T20:37:13.960Z,58.3
2018-05-10T20:38:03.091Z,58.3
2018-05-10T20:38:54.015Z,58.3
2018-05-10T20:39:44.105Z,58.3
2018-05-10T20:40:33.590Z,58.3
2018-05-10T20:41:23.741Z,58.2
2018-05-10T20:42:13.875Z,58.2
2018-05-10T20:43:04.718Z,58.2
2018-05-10T20:43:54.404Z,58.2
2018-05-10T20:44:44.810Z,58.2
2018-05-10T20:45:34.807Z,58.2
2018-05-10T20:46:24.260Z,58.1
2018-05-10T20:47:14.636Z,58.1
2018-05-10T20:48:04.709Z,58
2018-05-10T20:48:55.368Z,57.9
2018-05-10T20:49:44.649Z,57.9
2018-05-10T20:50:35.373Z,57.9
2018-05-10T20:51:24.382Z,57.8
2018-05-10T20:53:05.059Z,57.7
2018-05-10T20:53:55.001Z,57.7
2018-05-10T20:54:45.505Z,57.6
2018-05-10T20:55:35.403Z,57.6
2018-05-10T20:56:25.608Z,57.6
2018-05-10T20:57:15.123Z,57.6
2018-05-10T20:58:05.148Z,57.6
2018-05-10T20:58:55.395Z,57.6
2018-05-10T20:59:45.619Z,57.6
2018-05-10T21:00:35.424Z,57.6
2018-05-10T21:01:25.817Z,57.6
2018-05-10T21:02:15.263Z,57.5
2018-05-10T21:03:06.111Z,57.5
2018-05-10T21:03:55.288Z,57.5
2018-05-10T21:04:45.771Z,57.5
2018-05-10T21:05:36.393Z,57.5
2018-05-10T21:06:25.820Z,57.5
2018-05-10T21:07:15.772Z,57.5
2018-05-10T21:08:06.232Z,57.4
2018-05-10T21:08:56.271Z,57.4
2018-05-10T21:09:46.602Z,57.4
2018-05-10T21:10:36.735Z,57.4
2018-05-10T21:11:25.904Z,57.4
2018-05-10T21:12:16.531Z,57.4
2018-05-10T21:13:06.320Z,57.4
2018-05-10T21:13:56.950Z,57.4
2018-05-10T21:14:46.531Z,57.4
2018-05-10T21:15:36.806Z,57.4
2018-05-10T21:16:27.715Z,57.4
2018-05-10T21:17:17.204Z,57.4
2018-05-10T21:18:07.264Z,57.3
2018-05-10T21:18:57.624Z,57.3
2018-05-10T21:19:47.366Z,57.3
2018-05-10T21:20:37.443Z,57.3
2018-05-10T21:21:27.634Z,57.3
2018-05-10T21:22:17.560Z,57.3
2018-05-10T21:23:08.408Z,57.3
2018-05-10T21:23:57.422Z,57.3
2018-05-10T21:24:48.023Z,57.3
2018-05-10T21:25:37.264Z,57.3
2018-05-10T21:26:27.886Z,57.3
2018-05-10T21:27:17.960Z,57.3
2018-05-10T21:28:07.707Z,57.3
2018-05-10T21:28:58.054Z,57.3
2018-05-10T21:29:48.444Z,57.2
2018-05-10T21:30:37.908Z,57.2
2018-05-10T21:31:27.989Z,57.2
2018-05-10T21:32:18.596Z,57.2
2018-05-10T21:33:08.668Z,57.2
2018-05-10T21:33:59.226Z,57.2
2018-05-10T21:34:48.794Z,57.2
2018-05-10T21:35:38.549Z,57.1
2018-05-10T21:36:28.725Z,57.1
2018-05-10T21:37:18.986Z,57.1
2018-05-10T21:38:09.027Z,57.1
2018-05-10T21:38:59.128Z,57.1
2018-05-10T21:39:48.893Z,57.1
2018-05-10T21:40:38.744Z,57.1
2018-05-10T21:41:28.795Z,57.1
2018-05-10T21:42:19.371Z,57.1
2018-05-10T21:43:09.176Z,57.1
2018-05-10T21:43:59.197Z,57.1
2018-05-10T21:44:50.365Z,57.1
2018-05-10T21:45:39.597Z,57.1
2018-05-10T21:46:29.397Z,57.1
2018-05-10T21:47:19.764Z,57.1
2018-05-10T21:48:09.513Z,57.1
2018-05-10T21:48:59.295Z,57
2018-05-10T21:49:49.684Z,57
2018-05-10T21:50:39.135Z,57
2018-05-10T21:51:29.504Z,57
2018-05-10T21:52:19.840Z,57
2018-05-10T21:53:10.300Z,57
2018-05-10T21:53:58.854Z,57
2018-05-10T21:54:50.383Z,56.9
2018-05-10T21:55:40.082Z,56.9
2018-05-10T21:56:30.440Z,56.9
2018-05-10T21:57:19.974Z,56.9
2018-05-10T21:58:10.297Z,56.9
2018-05-10T21:59:00.375Z,56.9
2018-05-10T21:59:50.417Z,56.9
2018-05-10T22:00:40.763Z,56.9
2018-05-10T22:01:30.625Z,56.9
2018-05-10T22:02:20.851Z,56.9
2018-05-10T22:03:10.918Z,56.9
2018-05-10T22:04:01.027Z,56.9
2018-05-10T22:04:50.511Z,56.9
2018-05-10T22:05:40.868Z,56.8
2018-05-10T22:06:30.885Z,56.8
2018-05-10T22:07:21.011Z,56.8
2018-05-10T22:08:10.726Z,56.8
2018-05-10T22:09:01.522Z,56.8
2018-05-10T22:09:51.510Z,56.8
2018-05-10T22:10:41.234Z,56.8
2018-05-10T22:11:31.000Z,56.8
2018-05-10T22:12:21.161Z,56.8
2018-05-10T22:13:11.720Z,56.8
2018-05-10T22:14:01.216Z,56.8
2018-05-10T22:14:51.650Z,56.8
2018-05-10T22:15:41.661Z,56.8
2018-05-10T22:16:31.715Z,56.8
2018-05-10T22:17:22.078Z,56.8
2018-05-10T22:18:11.833Z,56.8
2018-05-10T22:19:02.237Z,56.7
2018-05-10T22:19:51.372Z,56.7
2018-05-10T22:20:42.110Z,56.7
2018-05-10T22:21:32.339Z,56.7
2018-05-10T22:22:22.395Z,56.7
2018-05-10T22:23:12.201Z,56.7
2018-05-10T22:24:02.524Z,56.6
2018-05-10T22:24:52.574Z,56.6
2018-05-10T22:25:42.370Z,56.6
2018-05-10T22:26:32.729Z,56.6
2018-05-10T22:27:22.203Z,56.6
2018-05-10T22:28:12.527Z,56.6
2018-05-10T22:29:02.362Z,56.6
2018-05-10T22:29:52.957Z,56.6
2018-05-10T22:30:43.031Z,56.6
2018-05-10T22:31:33.113Z,56.6
2018-05-10T22:32:23.169Z,56.6
2018-05-10T22:33:12.961Z,56.6
2018-05-10T22:34:02.729Z,56.6
2018-05-10T22:34:53.089Z,56.6
2018-05-10T22:35:43.416Z,56.5
2018-05-10T22:36:32.890Z,56.6
2018-05-10T22:37:23.263Z,56.5
2018-05-10T22:38:13.614Z,56.5
2018-05-10T22:39:03.385Z,56.5
2018-05-10T22:39:53.766Z,56.5
2018-05-10T22:40:43.239Z,56.5
2018-05-10T22:41:33.849Z,56.5
2018-05-10T22:42:23.639Z,56.5
2018-05-10T22:43:13.445Z,56.4
2018-05-10T22:44:03.764Z,56.4
2018-05-10T22:44:54.107Z,56.4
2018-05-10T22:45:44.177Z,56.4
2018-05-10T22:46:34.229Z,56.4
2018-05-10T22:47:23.179Z,56.4
2018-05-10T22:48:14.369Z,56.4
2018-05-10T22:49:04.464Z,56.4
2018-05-10T22:49:54.489Z,56.4
2018-05-10T22:50:44.304Z,56.4
2018-05-10T22:51:34.602Z,56.4
2018-05-10T22:52:24.420Z,56.4
2018-05-10T22:53:14.754Z,56.4
2018-05-10T22:54:04.521Z,56.4
2018-05-10T22:54:54.858Z,56.3
2018-05-10T22:55:44.978Z,56.3
2018-05-10T22:56:34.732Z,56.3
2018-05-10T22:57:25.069Z,56.3
2018-05-10T22:58:15.139Z,56.3
2018-05-10T22:59:04.911Z,56.3
2018-05-10T22:59:55.825Z,56.3
2018-05-10T23:00:45.046Z,56.3
2018-05-10T23:01:34.957Z,56.3
2018-05-10T23:02:25.461Z,56.3
2018-05-10T23:03:14.946Z,56.3
2018-05-10T23:04:05.589Z,56.3
2018-05-10T23:04:55.657Z,56.3
2018-05-10T23:05:45.686Z,56.3
2018-05-10T23:06:35.483Z,56.2
2018-05-10T23:07:25.534Z,56.3
2018-05-10T23:08:15.887Z,56.2
2018-05-10T23:09:05.433Z,56.2
2018-05-10T23:09:55.741Z,56.2
2018-05-10T23:10:45.508Z,56.2
2018-05-10T23:11:35.578Z,56.2
2018-05-10T23:12:25.914Z,56.2
2018-05-10T23:13:16.015Z,56.2
2018-05-10T23:14:06.327Z,56.1
2018-05-10T23:14:55.825Z,56.1
2018-05-10T23:15:46.175Z,56.1
2018-05-10T23:16:36.492Z,56.1
2018-05-10T23:17:26.298Z,56.1
2018-05-10T23:18:16.619Z,56.1
2018-05-10T23:19:06.460Z,56.1
2018-05-10T23:19:56.765Z,56.1
2018-05-10T23:20:46.267Z,56.1
2018-05-10T23:21:36.606Z,56.1
2018-05-10T23:22:26.672Z,56.1
2018-05-10T23:23:16.726Z,56.1
2018-05-10T23:24:06.830Z,56.1
2018-05-10T23:24:56.310Z,56.1
2018-05-10T23:25:47.308Z,56.1
2018-05-10T23:26:37.276Z,56
2018-05-10T23:27:27.329Z,56
2018-05-10T23:28:17.428Z,56
2018-05-10T23:29:06.631Z,56
2018-05-10T23:29:56.953Z,56
2018-05-10T23:30:47.300Z,56
2018-05-10T23:31:37.417Z,56
2018-05-10T23:32:27.425Z,55.9
2018-05-10T23:33:17.777Z,55.9
2018-05-10T23:34:07.828Z,55.9
2018-05-10T23:34:57.317Z,55.9
2018-05-10T23:35:47.695Z,55.9
2018-05-10T23:36:37.737Z,55.9
2018-05-10T23:37:27.546Z,55.9
2018-05-10T23:38:17.302Z,55.9
2018-05-10T23:39:08.219Z,55.9
2018-05-10T23:39:58.273Z,55.9
2018-05-10T23:40:48.321Z,55.9
2018-05-10T23:41:38.455Z,55.9
2018-05-10T23:42:28.486Z,55.9
2018-05-10T23:43:18.008Z,55.9
2018-05-10T23:44:08.620Z,55.9
2018-05-10T23:44:58.366Z,55.8
2018-05-10T23:45:48.436Z,55.8
2018-05-10T23:46:38.510Z,55.8
2018-05-10T23:47:28.352Z,55.8
2018-05-10T23:48:18.940Z,55.8
2018-05-10T23:49:08.725Z,55.8
2018-05-10T23:49:59.025Z,55.8
2018-05-10T23:50:48.831Z,55.8
2018-05-10T23:51:39.161Z,55.8
2018-05-10T23:52:28.388Z,55.8
2018-05-10T23:53:19.286Z,55.8
2018-05-10T23:54:09.107Z,55.8
2018-05-10T23:54:59.451Z,55.8
2018-05-10T23:55:49.495Z,55.8
2018-05-10T23:56:39.537Z,55.8
2018-05-10T23:57:29.594Z,55.7
2018-05-10T23:58:19.123Z,55.7
2018-05-10T23:59:09.440Z,55.7
2018-05-10T23:59:59.494Z,55.7
